createdAt,value
2022-10-22T00:00:48.911Z,43.90
2022-10-22T00:07:00.810Z,37.63
2022-10-22T00:12:17.997Z,40.33
2022-10-22T00:17:23.537Z,37.93
2022-10-22T00:22:27.129Z,46.10
2022-10-22T00:27:31.131Z,39.80
2022-10-22T00:32:36.845Z,40.97
2022-10-22T00:37:48.603Z,36.83
2022-10-22T00:43:05.816Z,41.87
2022-10-22T02:15:31.878Z,37.97
2022-10-22T03:44:31.295Z,46.87
2022-10-22T03:49:34.989Z,45.40
2022-10-22T03:59:45.473Z,47.67
2022-10-22T04:04:54.614Z,43.90
2022-10-22T04:09:57.976Z,50.77
2022-10-22T05:36:05.496Z,81.40
2022-10-22T05:41:18.052Z,50.37
2022-10-22T05:46:47.305Z,47.73
2022-10-22T05:51:55.804Z,56.37
2022-10-22T05:57:11.574Z,57.70
2022-10-22T06:02:40.829Z,76.97
2022-10-22T06:07:44.235Z,86.87
2022-10-22T06:12:52.404Z,57.53
2022-10-22T06:17:55.524Z,60.37
2022-10-22T06:22:59.415Z,55.77
2022-10-22T06:28:02.697Z,51.13
2022-10-22T06:33:05.895Z,57.67
2022-10-22T06:38:09.215Z,71.97
2022-10-22T06:43:13.752Z,97.77
2022-10-22T06:48:16.872Z,89.33
2022-10-22T06:53:22.893Z,86.27
2022-10-22T06:58:26.642Z,71.77
2022-10-22T07:03:30.126Z,70.00
2022-10-22T07:08:34.753Z,64.73
2022-10-22T07:13:38.305Z,61.23
2022-10-22T07:18:43.035Z,53.03
2022-10-22T07:23:47.124Z,54.67
2022-10-22T07:28:50.536Z,63.93
2022-10-22T07:33:53.964Z,62.07
2022-10-22T07:38:59.265Z,69.50
2022-10-22T07:44:02.674Z,72.47
2022-10-22T07:49:06.214Z,75.63
2022-10-22T07:54:09.871Z,71.53
2022-10-22T07:59:13.361Z,76.87
2022-10-22T08:04:17.246Z,76.67
2022-10-22T08:09:20.895Z,70.63
2022-10-22T08:14:24.614Z,68.03
2022-10-22T08:19:29.295Z,62.20
2022-10-22T08:24:32.365Z,58.20
2022-10-22T08:29:35.932Z,60.40
2022-10-22T08:34:39.292Z,55.57
2022-10-22T08:39:42.734Z,55.20
2022-10-22T08:44:51.924Z,52.53
2022-10-22T08:49:57.660Z,59.40
2022-10-22T08:55:09.824Z,64.07
2022-10-22T09:00:16.205Z,70.63
2022-10-22T09:05:44.520Z,61.57
2022-10-22T09:11:00.724Z,68.60
2022-10-22T09:16:44.104Z,61.13
2022-10-22T09:22:25.910Z,61.47
2022-10-22T09:27:32.928Z,61.27
2022-10-22T09:32:36.785Z,59.77
2022-10-22T09:37:51.312Z,51.33
2022-10-22T09:42:55.608Z,44.87
2022-10-22T09:48:19.481Z,43.53
2022-10-22T09:53:38.163Z,37.50
2022-10-22T09:58:49.854Z,41.20
2022-10-22T10:03:54.024Z,34.60
2022-10-22T10:08:57.649Z,36.50
2022-10-22T10:14:06.993Z,36.60
2022-10-22T10:19:20.584Z,36.97
2022-10-22T10:24:42.042Z,35.50
2022-10-22T10:30:21.274Z,33.93
2022-10-22T10:35:57.273Z,39.57
2022-10-22T10:41:15.642Z,37.03
2022-10-22T10:46:43.994Z,39.40
2022-10-22T10:51:55.518Z,43.93
2022-10-22T10:57:01.727Z,44.23
2022-10-22T11:02:20.384Z,46.03
2022-10-22T11:07:39.635Z,46.37
2022-10-22T11:12:49.444Z,50.07
2022-10-22T11:17:56.626Z,51.63
2022-10-22T11:23:24.919Z,47.33
2022-10-22T11:28:50.664Z,43.03
2022-10-22T11:34:15.218Z,51.07
2022-10-22T11:39:36.025Z,59.97
2022-10-22T11:45:01.158Z,52.20
2022-10-22T11:50:44.474Z,61.90
2022-10-22T11:55:54.370Z,60.90
2022-10-22T12:01:12.625Z,57.77
2022-10-22T12:06:16.113Z,59.43
2022-10-22T12:11:48.005Z,54.17
2022-10-22T12:17:08.844Z,60.17
2022-10-22T12:22:23.935Z,52.27
2022-10-22T12:27:35.545Z,48.63
2022-10-22T12:32:42.125Z,53.83
2022-10-22T12:37:49.432Z,52.93
2022-10-22T12:43:20.135Z,53.60
2022-10-22T12:48:27.434Z,42.73
2022-10-22T12:53:52.566Z,49.33
2022-10-22T12:59:16.954Z,45.80
2022-10-22T13:04:32.365Z,46.73
2022-10-22T13:09:41.574Z,45.93
2022-10-22T13:14:46.964Z,44.07
2022-10-22T13:19:55.184Z,41.97
2022-10-22T13:25:14.166Z,41.67
2022-10-22T13:36:53.592Z,33.07
2022-10-22T13:41:56.802Z,34.90
2022-10-22T13:46:59.948Z,36.73
2022-10-22T13:52:03.024Z,29.90
2022-10-22T13:57:09.894Z,31.63
2022-10-22T14:02:13.683Z,26.40
2022-10-22T14:07:17.262Z,23.73
2022-10-22T14:12:20.973Z,25.97
2022-10-22T14:17:24.334Z,23.43
2022-10-22T14:22:29.620Z,21.67
2022-10-22T14:27:33.233Z,22.90
2022-10-22T14:32:36.753Z,24.37
2022-10-22T14:37:40.674Z,22.07
2022-10-22T14:42:46.894Z,21.50
2022-10-22T14:47:51.424Z,17.93
2022-10-22T14:52:54.915Z,16.33
2022-10-22T14:57:58.457Z,15.03
2022-10-22T15:03:03.497Z,14.47
2022-10-22T15:08:07.821Z,15.63
2022-10-22T15:13:11.274Z,19.30
2022-10-22T15:18:15.394Z,15.17
2022-10-22T15:23:19.085Z,15.67
2022-10-22T15:28:22.940Z,14.00
2022-10-22T15:33:27.344Z,12.37
2022-10-22T15:38:31.076Z,14.63
2022-10-22T15:43:35.764Z,13.77
2022-10-22T15:48:39.675Z,16.43
2022-10-22T15:53:43.854Z,15.93
2022-10-22T15:58:47.036Z,12.17
2022-10-22T16:04:00.654Z,12.17
2022-10-22T16:09:07.867Z,15.57
2022-10-22T16:14:13.728Z,14.27
2022-10-22T16:19:18.630Z,16.00
2022-10-22T16:24:23.108Z,18.77
2022-10-22T16:29:29.354Z,18.20
2022-10-22T16:34:34.229Z,23.10
2022-10-22T16:39:39.225Z,19.37
2022-10-22T16:44:44.412Z,21.10
2022-10-22T16:49:48.229Z,26.43
2022-10-22T16:54:54.025Z,27.57
2022-10-22T17:00:01.160Z,21.87
2022-10-22T17:05:06.014Z,26.90
2022-10-22T17:10:10.890Z,29.33
2022-10-22T17:15:14.874Z,29.57
2022-10-22T17:20:19.812Z,28.37
2022-10-22T17:25:47.895Z,34.20
2022-10-22T17:31:08.604Z,26.73
2022-10-22T17:36:14.315Z,30.47
2022-10-22T17:41:22.008Z,30.30
2022-10-22T17:46:29.843Z,33.57
2022-10-22T17:51:34.572Z,32.77
2022-10-22T17:56:40.695Z,32.47
2022-10-22T18:01:46.164Z,33.73
2022-10-22T18:06:50.171Z,31.40
2022-10-22T18:11:57.830Z,33.63
2022-10-22T18:17:07.459Z,64.67
2022-10-22T18:22:18.958Z,59.33
2022-10-22T18:27:30.392Z,52.87
2022-10-22T18:32:36.241Z,42.33
2022-10-22T18:37:41.058Z,45.60
2022-10-22T18:42:45.818Z,49.20
2022-10-22T18:47:52.422Z,41.60
2022-10-22T18:52:58.281Z,43.33
2022-10-22T18:58:03.010Z,47.00
2022-10-22T19:03:07.161Z,59.70
2022-10-22T19:08:14.770Z,48.13
2022-10-22T19:13:26.570Z,46.93
2022-10-22T19:18:32.910Z,49.83
2022-10-22T19:23:37.510Z,41.57
2022-10-22T19:28:43.070Z,54.97
2022-10-22T19:33:48.643Z,43.97
2022-10-22T19:38:53.151Z,45.23
2022-10-22T19:43:59.230Z,40.13
2022-10-22T19:49:07.663Z,49.20
2022-10-22T19:54:19.532Z,50.53
2022-10-22T19:59:32.360Z,48.13
2022-10-22T20:04:37.102Z,56.07
2022-10-22T20:09:41.831Z,52.80
2022-10-22T20:14:46.182Z,51.20
2022-10-22T20:19:49.823Z,53.40
2022-10-22T20:24:54.177Z,60.07
2022-10-22T20:29:58.211Z,67.13
2022-10-22T20:35:03.491Z,58.03
2022-10-22T20:40:08.741Z,63.47
2022-10-22T20:45:12.411Z,60.77
2022-10-22T20:50:16.083Z,63.03
2022-10-22T20:55:21.890Z,57.90
2022-10-22T21:00:25.270Z,65.37
2022-10-22T21:05:28.722Z,58.93
2022-10-22T21:10:32.954Z,61.43
2022-10-22T21:15:36.010Z,58.30
2022-10-22T21:20:42.319Z,66.83
2022-10-22T21:25:55.290Z,67.80
2022-10-22T21:30:59.371Z,58.50
2022-10-22T21:36:03.216Z,65.87
2022-10-22T21:41:13.191Z,66.27
2022-10-22T21:46:21.015Z,67.00
2022-10-22T21:51:26.089Z,72.20
2022-10-22T21:56:35.291Z,71.87
2022-10-22T22:01:39.390Z,69.17
2022-10-22T22:06:43.381Z,71.27
2022-10-22T22:11:46.947Z,71.07
2022-10-22T22:16:50.351Z,74.60
2022-10-22T22:21:53.690Z,68.40
2022-10-22T22:26:57.057Z,67.17
2022-10-22T22:32:00.062Z,62.23
2022-10-22T22:37:03.110Z,62.33
2022-10-22T22:42:06.561Z,60.10
2022-10-22T22:47:09.801Z,58.63
2022-10-22T22:52:12.799Z,53.67
2022-10-22T22:57:16.231Z,55.43
2022-10-22T23:02:19.771Z,57.50
2022-10-22T23:07:23.072Z,59.30
2022-10-22T23:12:26.730Z,52.00
2022-10-22T23:17:29.950Z,56.73
2022-10-22T23:22:32.871Z,54.90
2022-10-22T23:27:35.993Z,49.13
2022-10-22T23:32:39.221Z,62.63
2022-10-22T23:37:42.503Z,63.63
2022-10-22T23:42:45.876Z,72.57
2022-10-22T23:47:48.943Z,61.77
2022-10-22T23:52:52.331Z,54.63
2022-10-22T23:57:55.839Z,52.63
